Terminal Aerodrome Forecast
Issued by NWS

Home | Current Version | Previous Version | Text Only | Print | Product List | Glossary On
Versions: 1 2 3 4 5 6 7 8 9 10 11 12 13 14 15 16 17 18 19 20 21 22 23 24 25 26 27 28 29 30
000
FTUS41 KBUF 150528
TAFIAG
TAF
KIAG 150528Z 1506/1606 00000KT P6SM SKC
     FM151000 23008KT P6SM BKN050
     FM151400 22008KT 6SM -SHSN SCT025 BKN050
     FM151600 21010KT 4SM -SN BKN025
     FM152000 22012G18KT 1/2SM SN OVC015
     FM160200 25014G22KT 4SM -SHSN OVC025=

USA.gov is the U.S. government's official web portal to all federal, state and local government web resources and services.